Rawlins Municipal Harvey Field
KRWL : now visible

Airfield :











YOU CAN JOIN US ON...

 
LOGIN :

Register | Disclaimer

   EN    FR    IT 

 









Legend :    VFR   Marginal VFR   IFR   Intensive IFR   Very Intensive IFR
Visi :
Ceiling :
>= 8 km
>= 3000ft
5 to 8 km
1000 to 3000 ft
1500m to 5 km
500 to 1000 ft
800 to 1500m
200 to 500 ft
< 800m
< 200 ft
Symbols :   Thunderstorms  Fog  Heavy snow  Heavy precipitations  Wind > 20 kt






- Airport Elevation : 6813 ft


KRWL - Rawlins Municipal Harvey Field

CURRENT METAR :
  • 231253Z AUTO 00000KT 10SM CLR M08/M12 A2999 RMK AO2 SLP188 T10831117

EXPIRED METARs :
  • 231153Z AUTO 03004KT 10SM CLR M08/M12 A2998 RMK AO2 SLP182 T10831122 11067 21094 56010
  • 231053Z AUTO 34008KT 10SM CLR M08/M13 A2998 RMK AO2 SLP179 T10831128

TAF KRWL
Valid from the 23 at 12:00 until the 24 at 12:00 UTC


231120Z 2312/2412 01004KT P6SM SKC
FM232100 25010KT P6SM SCT250
FM240600 28015G25KT P6SM VCSH BKN040 WS020/27045KT



MET'MAP, your aeronautical weather chart ! - Copyright ORBIFLY December 2007 - Disclaimer

ORBIFLY MET'MAP TEAM :

Programming & Development : Alexandra Zaïnal
Concept & original design : Baudouin d'Aumeries
Assistance for programming : Marc-Olivier Méhu
Technical & hardware support : Manuel Goepfert

Contact : metmap@orbifly.com




SOURCES & CREDITS :

   NOAA       Earth
Advisory